Time;durP1;ratioP1;P1;durP2;ratioP2;P2;SDS_P1;SDS_P2;PMS_P1;PMS_P2;Temp;Humidity;BMP_temperature;BMP_pressure;BME280_temperature;BME280_humidity;BME280_pressure;Samples;Min_cycle;Max_cycle;Signal;HPM_P1;HPM_P2
2020/12/07 00:01:57;;;;;;;25.42;14.98;;;5.80;99.90;;;;;;4159443;28;20029;-70
2020/12/07 00:03:57;;;;;;;26.98;16.55;;;5.80;99.90;;;;;;4159188;28;20404;-70
2020/12/07 00:05:58;;;;;;;27.80;16.52;;;5.80;99.90;;;;;;4158039;28;20104;-70
2020/12/07 00:08:01;;;;;;;27.02;16.17;;;5.80;99.90;;;;;;4160726;28;20523;-70
2020/12/07 00:10:04;;;;;;;28.23;17.42;;;5.70;99.90;;;;;;4160229;28;20577;-70
2020/12/07 00:12:07;;;;;;;25.65;16.92;;;5.70;99.90;;;;;;4160031;28;20175;-70
2020/12/07 00:14:08;;;;;;;26.38;16.27;;;5.70;99.90;;;;;;4157481;28;20041;-70
2020/12/07 00:16:10;;;;;;;26.23;15.65;;;5.60;99.90;;;;;;4157936;28;20033;-70
2020/12/07 00:18:10;;;;;;;25.40;15.68;;;5.70;99.90;;;;;;4159013;28;20498;-70
2020/12/07 00:20:11;;;;;;;25.38;16.35;;;5.70;99.90;;;;;;4161115;28;20056;-70
2020/12/07 00:22:11;;;;;;;28.45;18.40;;;5.70;99.90;;;;;;4159258;28;20494;-70
2020/12/07 00:24:12;;;;;;;26.42;16.90;;;5.60;99.90;;;;;;4160754;28;20041;-70
2020/12/07 00:26:13;;;;;;;24.83;15.93;;;5.60;99.90;;;;;;4161199;28;20055;-70
2020/12/07 00:28:13;;;;;;;28.13;17.42;;;5.60;99.90;;;;;;4160813;28;20125;-70
2020/12/07 00:30:14;;;;;;;31.52;19.42;;;5.60;99.90;;;;;;4160824;28;20054;-70
2020/12/07 00:32:14;;;;;;;29.35;18.13;;;5.60;99.90;;;;;;4159950;28;20420;-70
2020/12/07 00:34:15;;;;;;;32.28;19.00;;;5.50;99.90;;;;;;4160774;28;20049;-70
2020/12/07 00:36:16;;;;;;;29.88;18.63;;;5.50;99.90;;;;;;4150125;28;20485;-70
2020/12/07 00:38:16;;;;;;;30.52;18.08;;;5.50;99.90;;;;;;4159465;28;20061;-70
2020/12/07 00:40:17;;;;;;;31.85;18.05;;;5.50;99.90;;;;;;4160647;28;20119;-71
2020/12/07 00:42:21;;;;;;;25.08;15.70;;;5.50;99.90;;;;;;4159133;28;20033;-70
2020/12/07 00:44:21;;;;;;;29.63;17.58;;;5.50;99.90;;;;;;4158444;28;20057;-70
2020/12/07 00:46:22;;;;;;;27.65;16.70;;;5.50;99.90;;;;;;4159566;28;20080;-70
2020/12/07 00:48:22;;;;;;;31.55;18.70;;;5.50;99.90;;;;;;4159724;28;20041;-70
2020/12/07 00:50:24;;;;;;;29.60;18.13;;;5.50;99.90;;;;;;4157679;28;20488;-70
2020/12/07 00:52:24;;;;;;;32.23;19.13;;;5.50;99.90;;;;;;4160175;28;20092;-70
2020/12/07 00:54:25;;;;;;;32.40;18.73;;;5.50;99.90;;;;;;4159891;28;20029;-70
2020/12/07 00:56:26;;;;;;;30.98;17.75;;;5.50;99.90;;;;;;4159785;28;20029;-70
2020/12/07 00:58:28;;;;;;;33.25;18.73;;;5.50;99.90;;;;;;4158937;28;20095;-70
2020/12/07 01:00:29;;;;;;;29.25;18.15;;;5.40;99.90;;;;;;4155962;28;20040;-70
2020/12/07 01:02:32;;;;;;;28.63;18.30;;;5.50;99.90;;;;;;4156810;28;20084;-70
2020/12/07 01:04:33;;;;;;;28.25;18.48;;;5.50;99.90;;;;;;4158411;28;20034;-70
2020/12/07 01:06:34;;;;;;;23.92;15.70;;;5.40;99.90;;;;;;4156905;28;20018;-70
2020/12/07 01:08:34;;;;;;;26.00;16.60;;;5.50;99.90;;;;;;4160856;28;20028;-70
2020/12/07 01:10:36;;;;;;;29.65;18.00;;;5.50;99.90;;;;;;4159008;28;20030;-71
2020/12/07 01:12:36;;;;;;;29.00;17.65;;;5.50;99.90;;;;;;4160296;28;20033;-70
2020/12/07 01:14:37;;;;;;;29.77;18.33;;;5.40;99.90;;;;;;4159093;28;20067;-70
2020/12/07 01:16:38;;;;;;;26.35;17.33;;;5.40;99.90;;;;;;4152318;28;20064;-70
2020/12/07 01:18:44;;;;;;;27.83;17.92;;;5.40;99.90;;;;;;4151229;28;20095;-70
2020/12/07 01:20:44;;;;;;;29.05;17.40;;;5.40;99.90;;;;;;4159060;28;20462;-70
2020/12/07 01:22:45;;;;;;;28.10;17.25;;;5.40;99.90;;;;;;4160272;28;20029;-70
2020/12/07 01:24:52;;;;;;;26.60;17.27;;;5.30;99.90;;;;;;4155419;28;20033;-70
2020/12/07 01:26:52;;;;;;;27.75;16.95;;;5.30;99.90;;;;;;4159853;28;20037;-70
2020/12/07 01:28:53;;;;;;;25.58;15.93;;;5.30;99.90;;;;;;4157855;28;20058;-70
2020/12/07 01:30:54;;;;;;;26.77;17.25;;;5.30;99.90;;;;;;4159650;28;20431;-71
2020/12/07 01:32:55;;;;;;;26.40;15.82;;;5.30;99.90;;;;;;4160087;28;20029;-70
2020/12/07 01:34:55;;;;;;;24.67;16.15;;;5.40;99.90;;;;;;4159973;28;20037;-70
2020/12/07 01:36:56;;;;;;;26.23;16.42;;;5.40;99.90;;;;;;4160212;28;20087;-71
2020/12/07 01:38:56;;;;;;;29.30;17.50;;;5.40;99.90;;;;;;4159674;28;20085;-70
2020/12/07 01:40:57;;;;;;;25.73;16.15;;;5.30;99.90;;;;;;4154523;28;20041;-70
2020/12/07 01:42:57;;;;;;;27.33;16.70;;;5.30;99.90;;;;;;4160301;28;20057;-70
2020/12/07 01:44:59;;;;;;;23.33;16.25;;;5.40;99.90;;;;;;4160072;28;20474;-70
2020/12/07 01:47:19;;;;;;;25.80;16.98;;;5.30;99.90;;;;;;4156628;28;20208;-71
2020/12/07 01:49:19;;;;;;;24.60;16.02;;;5.40;99.90;;;;;;4159560;28;20045;-71
2020/12/07 01:51:21;;;;;;;27.33;16.88;;;5.30;99.90;;;;;;4159585;28;20060;-70
2020/12/07 01:53:22;;;;;;;28.38;16.77;;;5.30;99.90;;;;;;4154453;28;20045;-70
2020/12/07 01:55:23;;;;;;;25.35;16.23;;;5.30;99.90;;;;;;4159503;28;20381;-70
2020/12/07 01:57:24;;;;;;;26.25;15.90;;;5.30;99.90;;;;;;4158297;28;20073;-71
2020/12/07 01:59:24;;;;;;;29.73;17.83;;;5.20;99.90;;;;;;4141988;28;20089;-70
2020/12/07 02:01:26;;;;;;;27.75;17.83;;;5.30;99.90;;;;;;4163854;28;20496;-70
2020/12/07 02:03:27;;;;;;;25.42;16.80;;;5.20;99.90;;;;;;4167379;28;20033;-70
2020/12/07 02:05:28;;;;;;;27.52;17.45;;;5.20;99.90;;;;;;4162922;28;20052;-70
2020/12/07 02:07:28;;;;;;;28.55;18.42;;;5.20;99.90;;;;;;4165561;28;20029;-70
2020/12/07 02:09:29;;;;;;;26.85;17.13;;;5.20;99.90;;;;;;4165196;28;20520;-70
2020/12/07 02:11:30;;;;;;;27.42;17.15;;;5.20;99.90;;;;;;4164804;28;20033;-70
2020/12/07 02:13:31;;;;;;;27.55;17.40;;;5.20;99.90;;;;;;4165181;28;20053;-70
2020/12/07 02:15:32;;;;;;;29.35;17.40;;;5.10;99.90;;;;;;4162096;28;20029;-70
2020/12/07 02:17:33;;;;;;;27.52;18.08;;;5.10;99.90;;;;;;4163373;28;20107;-70
2020/12/07 02:19:33;;;;;;;30.27;19.30;;;5.10;99.90;;;;;;4162755;28;20033;-70
2020/12/07 02:21:34;;;;;;;33.30;20.98;;;5.10;99.90;;;;;;4163004;28;20064;-70
2020/12/07 02:23:34;;;;;;;28.08;18.17;;;5.10;99.90;;;;;;4163326;28;20033;-70
2020/12/07 02:25:35;;;;;;;29.88;18.60;;;5.20;99.90;;;;;;4160475;28;20099;-71
2020/12/07 02:27:35;;;;;;;30.13;18.90;;;5.20;99.90;;;;;;4162885;28;20095;-70
2020/12/07 02:29:36;;;;;;;26.55;17.63;;;5.20;99.90;;;;;;4165129;28;20088;-70
2020/12/07 02:31:38;;;;;;;29.70;17.65;;;5.30;99.90;;;;;;4164767;28;20095;-70
2020/12/07 02:33:38;;;;;;;31.08;19.77;;;5.30;99.90;;;;;;4163082;28;20034;-70
2020/12/07 02:35:39;;;;;;;28.83;18.60;;;5.30;99.90;;;;;;4162776;28;20060;-71
2020/12/07 02:37:41;;;;;;;28.27;18.83;;;5.30;99.90;;;;;;4164186;28;20037;-70
2020/12/07 02:39:41;;;;;;;26.25;17.50;;;5.30;99.90;;;;;;4164574;28;20381;-70
2020/12/07 02:41:43;;;;;;;30.77;19.13;;;5.40;99.90;;;;;;4164574;28;20029;-70
2020/12/07 02:43:43;;;;;;;25.77;17.17;;;5.30;99.90;;;;;;4162513;28;20115;-70
2020/12/07 02:45:44;;;;;;;27.42;16.67;;;5.30;99.90;;;;;;4165040;28;20041;-70
2020/12/07 02:47:45;;;;;;;25.30;16.48;;;5.40;99.90;;;;;;4165055;28;20037;-70
2020/12/07 02:49:45;;;;;;;27.63;18.33;;;5.40;99.90;;;;;;4164604;28;20119;-70
2020/12/07 02:51:46;;;;;;;26.33;17.02;;;5.40;99.90;;;;;;4164373;28;20123;-70
2020/12/07 02:53:46;;;;;;;25.90;16.65;;;5.40;99.90;;;;;;4164849;28;20430;-70
2020/12/07 02:55:47;;;;;;;26.42;16.50;;;5.40;99.90;;;;;;4164665;28;20500;-70
2020/12/07 02:57:47;;;;;;;28.65;17.83;;;5.40;99.90;;;;;;4164676;28;20041;-70
2020/12/07 02:59:49;;;;;;;23.77;15.85;;;5.40;99.90;;;;;;4164579;28;20041;-70
2020/12/07 03:01:50;;;;;;;27.27;16.85;;;5.40;99.90;;;;;;4160800;28;20075;-70
2020/12/07 03:03:51;;;;;;;25.38;16.55;;;5.40;99.90;;;;;;4164927;28;20053;-70
2020/12/07 03:05:51;;;;;;;29.75;18.63;;;5.40;99.90;;;;;;4162859;28;20076;-70
2020/12/07 03:07:52;;;;;;;26.45;17.25;;;5.40;99.90;;;;;;4163369;28;20040;-70
2020/12/07 03:09:53;;;;;;;26.10;16.98;;;5.30;99.90;;;;;;4164923;28;20030;-70
2020/12/07 03:11:53;;;;;;;27.60;18.20;;;5.30;99.90;;;;;;4160573;28;20113;-70
2020/12/07 03:13:54;;;;;;;27.08;17.67;;;5.30;99.90;;;;;;4159868;28;20528;-70
2020/12/07 03:15:55;;;;;;;27.02;17.63;;;5.30;99.90;;;;;;4160462;28;20165;-70
2020/12/07 03:17:55;;;;;;;31.13;18.67;;;5.30;99.90;;;;;;4159594;28;20033;-70
2020/12/07 03:19:56;;;;;;;28.33;17.25;;;5.20;99.90;;;;;;4161827;28;20064;-70
2020/12/07 03:21:57;;;;;;;30.17;19.80;;;5.30;99.90;;;;;;4161388;28;20037;-70
2020/12/07 03:23:57;;;;;;;32.22;19.33;;;5.30;99.90;;;;;;4159964;28;20598;-70
2020/12/07 03:25:58;;;;;;;29.85;19.50;;;5.30;99.90;;;;;;4162179;28;20071;-70
2020/12/07 03:27:59;;;;;;;28.23;18.58;;;5.30;99.90;;;;;;4158574;28;20160;-70
2020/12/07 03:29:59;;;;;;;27.13;17.92;;;5.40;99.90;;;;;;4161267;28;20061;-70
2020/12/07 03:32:00;;;;;;;28.60;18.35;;;5.30;99.90;;;;;;4161693;28;20231;-70
2020/12/07 03:34:01;;;;;;;28.83;17.75;;;5.30;99.90;;;;;;4144292;28;20375;-70
2020/12/07 03:36:02;;;;;;;27.08;18.08;;;5.30;99.90;;;;;;4160624;28;20030;-70
2020/12/07 03:38:03;;;;;;;28.35;17.63;;;5.30;99.90;;;;;;4160762;28;20385;-70
2020/12/07 03:40:03;;;;;;;27.80;18.50;;;5.30;99.90;;;;;;4161260;28;20029;-70
2020/12/07 03:42:05;;;;;;;26.95;17.23;;;5.30;99.90;;;;;;4161504;28;20028;-70
2020/12/07 03:44:06;;;;;;;28.80;18.65;;;5.40;99.90;;;;;;4161337;28;20034;-70
2020/12/07 03:46:07;;;;;;;27.35;18.00;;;5.40;99.90;;;;;;4159275;28;20083;-70
2020/12/07 03:48:07;;;;;;;29.83;17.20;;;5.30;99.90;;;;;;4160096;28;20084;-70
2020/12/07 03:50:08;;;;;;;31.88;19.40;;;5.30;99.90;;;;;;4158089;28;20030;-70
2020/12/07 03:52:08;;;;;;;29.27;18.33;;;5.40;99.90;;;;;;4159426;28;20064;-70
2020/12/07 03:54:09;;;;;;;29.70;18.45;;;5.30;99.90;;;;;;4159914;28;20034;-70
2020/12/07 03:56:10;;;;;;;28.17;16.48;;;5.30;99.90;;;;;;4161199;28;20025;-70
2020/12/07 03:58:10;;;;;;;28.40;18.95;;;5.30;99.90;;;;;;4160872;28;20117;-70
2020/12/07 04:00:11;;;;;;;28.02;17.60;;;5.30;99.90;;;;;;4160674;28;20033;-70
2020/12/07 04:02:12;;;;;;;27.42;17.73;;;5.30;99.90;;;;;;4161380;28;20479;-70
2020/12/07 04:04:16;;;;;;;28.23;18.52;;;5.30;99.90;;;;;;4160641;28;20117;-71
2020/12/07 04:06:23;;;;;;;29.63;18.80;;;5.30;99.90;;;;;;4161426;28;20105;-70
2020/12/07 04:08:23;;;;;;;28.67;18.55;;;5.30;99.90;;;;;;4158303;28;20544;-71
2020/12/07 04:10:24;;;;;;;26.30;17.38;;;5.30;99.90;;;;;;4159643;28;20034;-70
2020/12/07 04:12:25;;;;;;;29.35;18.52;;;5.30;99.90;;;;;;4142780;28;20112;-70
2020/12/07 04:14:25;;;;;;;31.63;19.63;;;5.20;99.90;;;;;;4160368;28;20041;-70
2020/12/07 04:16:29;;;;;;;29.10;18.38;;;5.30;99.90;;;;;;4161185;28;20087;-70
2020/12/07 04:18:30;;;;;;;28.13;18.17;;;5.20;99.90;;;;;;4160840;28;20045;-70
2020/12/07 04:20:31;;;;;;;31.15;19.17;;;5.20;99.90;;;;;;4159926;28;20068;-70
2020/12/07 04:22:31;;;;;;;29.08;19.48;;;5.20;99.90;;;;;;4159533;28;20034;-70
2020/12/07 04:24:32;;;;;;;30.73;19.48;;;5.20;99.90;;;;;;4159547;28;20168;-70
2020/12/07 04:26:32;;;;;;;31.23;19.27;;;5.20;99.90;;;;;;4159807;28;20083;-70
2020/12/07 04:28:33;;;;;;;31.63;20.48;;;5.20;99.90;;;;;;4156487;28;20055;-70
2020/12/07 04:30:39;;;;;;;29.60;18.80;;;5.20;99.90;;;;;;4159495;28;20547;-70
2020/12/07 04:32:39;;;;;;;36.35;21.88;;;5.20;99.90;;;;;;4158925;28;20029;-70
2020/12/07 04:34:40;;;;;;;34.00;21.33;;;5.20;99.90;;;;;;4155573;28;20122;-70
2020/12/07 04:36:40;;;;;;;31.60;20.85;;;5.20;99.90;;;;;;4160086;28;20037;-70
2020/12/07 04:38:41;;;;;;;33.20;20.48;;;5.20;99.90;;;;;;4152962;28;20547;-70
2020/12/07 04:40:42;;;;;;;33.85;21.80;;;5.20;99.90;;;;;;4160736;28;20069;-70
2020/12/07 04:42:43;;;;;;;32.80;21.92;;;5.20;99.90;;;;;;4158220;28;20025;-70
2020/12/07 04:44:44;;;;;;;33.28;21.90;;;5.20;99.90;;;;;;4158763;28;20405;-70
2020/12/07 04:46:46;;;;;;;32.78;21.77;;;5.20;99.90;;;;;;4157789;28;20041;-70
2020/12/07 04:48:57;;;;;;;36.03;21.52;;;5.20;99.90;;;;;;4160700;28;20044;-70
2020/12/07 04:50:59;;;;;;;35.45;21.95;;;5.20;99.90;;;;;;4155720;28;20045;-70
2020/12/07 04:53:00;;;;;;;32.05;20.80;;;5.20;99.90;;;;;;4160340;28;20069;-70
2020/12/07 04:55:03;;;;;;;34.97;21.15;;;5.20;99.90;;;;;;4160266;28;20041;-70
2020/12/07 04:57:05;;;;;;;33.20;21.52;;;5.20;99.90;;;;;;4159150;28;20484;-70
2020/12/07 04:59:08;;;;;;;32.50;20.83;;;5.20;99.90;;;;;;4160481;28;20493;-70
2020/12/07 05:01:09;;;;;;;32.58;21.50;;;5.20;99.90;;;;;;4159073;28;20492;-70
2020/12/07 05:03:09;;;;;;;35.40;22.92;;;5.20;99.90;;;;;;4160101;28;20041;-70
2020/12/07 05:05:10;;;;;;;32.05;20.38;;;5.20;99.90;;;;;;4160606;28;20477;-70
2020/12/07 05:07:11;;;;;;;31.45;20.42;;;5.20;99.90;;;;;;4159523;28;20434;-70
2020/12/07 05:09:12;;;;;;;29.55;20.00;;;5.20;99.90;;;;;;4160215;28;20029;-70
2020/12/07 05:11:13;;;;;;;32.33;19.65;;;5.20;99.90;;;;;;4159430;28;20053;-70
2020/12/07 05:15:23;;;;;;;31.10;20.10;;;5.20;99.90;;;;;;4159596;28;20037;-70
2020/12/07 05:17:24;;;;;;;29.52;20.00;;;5.20;99.90;;;;;;4155542;28;20064;-70
2020/12/07 05:19:25;;;;;;;29.27;18.58;;;5.20;99.90;;;;;;4159858;28;20428;-70
2020/12/07 05:21:26;;;;;;;27.33;17.90;;;5.20;99.90;;;;;;4158922;28;20035;-70
2020/12/07 05:23:26;;;;;;;30.90;20.13;;;5.20;99.90;;;;;;4157381;28;20095;-70
2020/12/07 05:25:29;;;;;;;30.38;19.48;;;5.20;99.90;;;;;;4158540;28;20055;-70
2020/12/07 05:27:31;;;;;;;29.50;20.55;;;5.20;99.90;;;;;;4158001;28;20041;-70
2020/12/07 05:29:41;;;;;;;31.95;20.95;;;5.20;99.90;;;;;;4159311;28;20057;-70
2020/12/07 05:31:42;;;;;;;32.08;20.98;;;5.20;99.90;;;;;;4150254;28;20030;-70
2020/12/07 05:33:46;;;;;;;28.88;19.42;;;5.20;99.90;;;;;;4156478;28;20075;-70
2020/12/07 05:35:53;;;;;;;28.75;19.58;;;5.20;99.90;;;;;;4158068;28;20030;-70
2020/12/07 05:37:54;;;;;;;32.55;21.33;;;5.30;99.90;;;;;;4153860;28;20091;-70
2020/12/07 05:39:54;;;;;;;32.17;20.20;;;5.20;99.90;;;;;;4159592;28;20041;-70
2020/12/07 05:41:56;;;;;;;32.10;19.52;;;5.30;99.90;;;;;;4158673;28;20132;-70
2020/12/07 05:43:58;;;;;;;34.25;21.98;;;5.20;99.90;;;;;;4159615;28;20129;-70
2020/12/07 05:46:00;;;;;;;34.30;21.85;;;5.20;99.90;;;;;;4158275;28;20065;-70
2020/12/07 05:48:02;;;;;;;36.27;22.87;;;5.20;99.90;;;;;;4159679;28;20401;-70
2020/12/07 05:50:03;;;;;;;35.78;22.83;;;5.30;99.90;;;;;;4157859;28;20256;-70
2020/12/07 05:52:04;;;;;;;36.58;22.60;;;5.30;99.90;;;;;;4157419;28;20059;-70
2020/12/07 05:54:08;;;;;;;31.75;20.88;;;5.30;99.90;;;;;;4159190;28;20434;-70
2020/12/07 05:56:09;;;;;;;33.28;21.48;;;5.30;99.90;;;;;;4158042;28;20029;-70
2020/12/07 05:58:11;;;;;;;41.53;26.10;;;5.30;99.90;;;;;;4155090;28;20080;-70
2020/12/07 06:00:20;;;;;;;39.58;24.40;;;5.20;99.90;;;;;;4157617;28;20086;-71
2020/12/07 06:02:22;;;;;;;33.63;22.52;;;5.30;99.90;;;;;;4159016;28;20373;-70
2020/12/07 06:04:24;;;;;;;33.90;23.05;;;5.30;99.90;;;;;;4157804;28;20029;-71
2020/12/07 06:06:32;;;;;;;42.15;25.95;;;5.20;99.90;;;;;;4158609;28;20475;-70
2020/12/07 06:08:36;;;;;;;40.03;24.60;;;5.20;99.90;;;;;;4157371;28;20049;-70
2020/12/07 06:10:50;;;;;;;38.33;24.70;;;5.20;99.90;;;;;;4157595;28;20129;-71
2020/12/07 06:12:54;;;;;;;39.97;23.98;;;5.30;99.90;;;;;;4159059;28;20025;-71
2020/12/07 06:14:55;;;;;;;37.45;22.92;;;5.20;99.90;;;;;;4130975;28;20373;-71
2020/12/07 06:16:56;;;;;;;38.10;25.27;;;5.30;99.90;;;;;;4161257;28;20044;-71
2020/12/07 06:18:57;;;;;;;36.67;23.05;;;5.20;99.90;;;;;;4158685;28;20064;-71
2020/12/07 06:21:12;;;;;;;37.33;22.40;;;5.30;99.90;;;;;;4158227;28;20060;-71
2020/12/07 06:23:17;;;;;;;37.85;22.85;;;5.30;99.90;;;;;;4155925;28;20034;-71
2020/12/07 06:25:17;;;;;;;35.40;22.50;;;5.30;99.90;;;;;;4155505;28;20037;-71
2020/12/07 06:27:19;;;;;;;36.92;22.55;;;5.30;99.90;;;;;;4158367;28;20184;-70
2020/12/07 06:29:21;;;;;;;32.60;20.00;;;5.30;99.90;;;;;;4133599;28;20045;-70
2020/12/07 06:31:21;;;;;;;30.63;19.70;;;5.20;99.90;;;;;;4159197;28;20030;-71
2020/12/07 06:33:22;;;;;;;31.88;19.00;;;5.30;99.90;;;;;;4159843;28;20034;-71
2020/12/07 06:35:26;;;;;;;29.10;19.08;;;5.20;99.90;;;;;;4156453;28;20048;-71
2020/12/07 06:37:27;;;;;;;27.23;18.08;;;5.20;99.90;;;;;;4158191;28;20505;-70
2020/12/07 06:39:44;;;;;;;34.45;20.08;;;5.30;99.90;;;;;;4147338;28;20057;-71
2020/12/07 06:41:47;;;;;;;30.83;18.88;;;5.30;99.90;;;;;;4157037;28;20400;-71
2020/12/07 06:43:57;;;;;;;29.58;18.67;;;5.30;99.90;;;;;;4158676;28;20029;-71
2020/12/07 06:45:57;;;;;;;30.60;19.60;;;5.30;99.90;;;;;;4156898;28;20050;-71
2020/12/07 06:48:13;;;;;;;31.05;18.67;;;5.30;99.90;;;;;;4160294;28;20480;-70
2020/12/07 06:50:28;;;;;;;30.30;18.13;;;5.30;99.90;;;;;;4125762;28;20030;-71
2020/12/07 06:52:34;;;;;;;32.22;19.30;;;5.30;99.90;;;;;;4148270;28;20408;-71
2020/12/07 06:56:56;;;;;;;32.70;20.15;;;5.30;99.90;;;;;;4155731;28;20084;-70
2020/12/07 06:58:56;;;;;;;32.00;19.42;;;5.20;99.90;;;;;;4162469;28;20038;-71
2020/12/07 07:01:12;;;;;;;32.85;20.38;;;5.10;99.90;;;;;;4161420;28;20554;-70
2020/12/07 07:03:13;;;;;;;28.75;18.75;;;5.10;99.90;;;;;;4162632;28;20044;-71
2020/12/07 07:05:19;;;;;;;29.35;18.98;;;5.10;99.90;;;;;;4162397;28;20449;-71
2020/12/07 07:07:21;;;;;;;34.58;19.88;;;5.10;99.90;;;;;;4159787;28;20373;-71
2020/12/07 07:09:22;;;;;;;29.38;18.38;;;5.00;99.90;;;;;;4160607;28;20033;-70
2020/12/07 07:11:23;;;;;;;31.38;18.77;;;5.10;99.90;;;;;;4160374;28;20034;-71
2020/12/07 07:13:24;;;;;;;27.77;18.27;;;5.00;99.90;;;;;;4161968;28;20040;-71
2020/12/07 07:15:25;;;;;;;31.95;19.95;;;5.00;99.90;;;;;;4158781;28;20113;-70
2020/12/07 07:17:30;;;;;;;33.03;19.02;;;5.00;99.90;;;;;;4160003;28;20060;-72
2020/12/07 07:19:31;;;;;;;33.00;19.92;;;5.00;99.90;;;;;;4161551;28;20037;-72
2020/12/07 07:21:48;;;;;;;31.98;19.50;;;5.00;99.90;;;;;;4160319;28;20195;-72
2020/12/07 07:23:49;;;;;;;29.00;18.45;;;5.00;99.90;;;;;;4140192;28;20038;-72
2020/12/07 07:25:57;;;;;;;30.88;18.92;;;5.00;99.90;;;;;;4160638;28;20029;-72
2020/12/07 07:30:05;;;;;;;32.35;19.65;;;5.00;99.90;;;;;;4161936;28;20046;-72
2020/12/07 07:32:05;;;;;;;30.80;19.50;;;5.00;99.90;;;;;;4159593;28;20037;-72
2020/12/07 07:34:08;;;;;;;34.63;18.65;;;5.00;99.90;;;;;;4159985;28;20045;-72
2020/12/07 07:36:23;;;;;;;33.47;19.40;;;5.00;99.90;;;;;;4158461;28;20038;-72
2020/12/07 07:38:31;;;;;;;30.88;17.42;;;5.00;99.90;;;;;;4158301;28;20481;-72
2020/12/07 07:40:32;;;;;;;30.98;17.73;;;5.00;99.90;;;;;;4141974;28;20022;-72
2020/12/07 07:42:38;;;;;;;30.15;17.00;;;4.90;99.90;;;;;;4160895;28;20120;-72
2020/12/07 07:44:43;;;;;;;30.20;17.10;;;4.90;99.90;;;;;;4160352;28;20083;-72
2020/12/07 07:46:45;;;;;;;26.65;16.38;;;5.00;99.90;;;;;;4160020;28;20045;-73
2020/12/07 08:12:45;;;;;;;31.92;17.45;;;5.00;99.90;;;;;;4158291;28;20596;-72
2020/12/07 08:16:58;;;;;;;29.52;17.13;;;5.00;99.90;;;;;;4158303;28;20382;-72
2020/12/07 08:18:59;;;;;;;31.65;17.60;;;5.00;99.90;;;;;;4158835;28;20123;-72
2020/12/07 08:21:02;;;;;;;36.15;19.75;;;5.00;99.90;;;;;;4159250;28;20029;-72
2020/12/07 08:23:05;;;;;;;35.17;19.63;;;5.00;99.90;;;;;;4159160;28;20480;-73
2020/12/07 08:25:06;;;;;;;33.83;17.90;;;5.00;99.90;;;;;;4155041;28;20026;-73
2020/12/07 08:27:12;;;;;;;33.47;18.65;;;5.00;99.90;;;;;;4133944;28;20061;-72
2020/12/07 08:29:13;;;;;;;31.20;18.75;;;5.00;99.90;;;;;;4158630;28;20677;-72
2020/12/07 08:31:17;;;;;;;31.98;17.58;;;5.00;99.90;;;;;;4156992;28;20061;-72
2020/12/07 08:33:18;;;;;;;33.42;17.77;;;5.00;99.90;;;;;;4156950;28;20704;-72
2020/12/07 08:35:21;;;;;;;28.13;16.95;;;5.00;99.90;;;;;;4157633;28;20107;-72
2020/12/07 08:37:22;;;;;;;33.30;17.92;;;5.00;99.90;;;;;;4158822;28;20026;-72
2020/12/07 08:39:22;;;;;;;32.17;17.70;;;5.00;99.90;;;;;;4158401;28;20163;-72
2020/12/07 08:41:25;;;;;;;36.22;18.25;;;5.00;99.90;;;;;;4158251;28;20025;-72
2020/12/07 08:43:26;;;;;;;31.02;17.33;;;5.00;99.90;;;;;;4156731;28;20036;-73
2020/12/07 08:45:27;;;;;;;36.70;19.02;;;5.00;99.90;;;;;;4155339;28;20037;-72
2020/12/07 08:47:27;;;;;;;33.78;17.25;;;5.00;99.90;;;;;;4158999;28;20633;-72
2020/12/07 08:49:28;;;;;;;33.53;18.08;;;4.90;99.90;;;;;;4157551;28;20033;-72
2020/12/07 08:51:32;;;;;;;36.22;19.48;;;4.90;99.90;;;;;;4155219;28;20577;-72
2020/12/07 08:53:34;;;;;;;34.33;18.92;;;5.00;99.90;;;;;;4156269;28;20038;-72
2020/12/07 08:55:35;;;;;;;38.90;18.70;;;4.90;99.90;;;;;;4155905;28;20544;-72
2020/12/07 08:57:35;;;;;;;33.30;18.58;;;4.90;99.90;;;;;;4158338;28;20036;-72
2020/12/07 08:59:36;;;;;;;37.10;20.33;;;4.90;99.90;;;;;;4159317;28;20555;-72
2020/12/07 09:01:36;;;;;;;35.25;19.38;;;4.90;99.90;;;;;;4157344;28;20397;-72
2020/12/07 09:03:39;;;;;;;36.28;19.90;;;4.90;99.90;;;;;;4158294;28;20385;-72
2020/12/07 09:05:40;;;;;;;43.08;22.23;;;4.90;99.90;;;;;;4156309;28;20049;-72
2020/12/07 09:07:40;;;;;;;39.78;21.80;;;4.90;99.90;;;;;;4156270;28;20061;-72
2020/12/07 09:09:42;;;;;;;42.15;22.27;;;4.90;99.90;;;;;;4155328;28;20049;-72
2020/12/07 09:11:43;;;;;;;43.00;23.48;;;4.80;99.90;;;;;;4157033;28;20040;-73
2020/12/07 09:13:43;;;;;;;37.80;21.63;;;4.90;99.90;;;;;;4158408;28;20034;-72
2020/12/07 09:15:44;;;;;;;42.92;23.10;;;4.80;99.90;;;;;;4159147;28;20493;-73
2020/12/07 09:17:45;;;;;;;41.45;22.80;;;4.80;99.90;;;;;;4158573;28;20456;-72
2020/12/07 09:19:45;;;;;;;42.60;23.85;;;4.90;99.90;;;;;;4157310;28;20038;-73
2020/12/07 09:21:46;;;;;;;44.67;24.40;;;4.90;99.90;;;;;;4157372;28;20076;-73
2020/12/07 09:23:47;;;;;;;41.75;22.70;;;4.90;99.90;;;;;;4158552;28;20067;-73
2020/12/07 09:25:48;;;;;;;47.92;26.23;;;4.90;99.90;;;;;;4156520;28;20108;-73
2020/12/07 09:27:48;;;;;;;42.53;23.70;;;4.90;99.90;;;;;;4159345;28;20030;-73
2020/12/07 09:29:49;;;;;;;45.10;24.83;;;4.90;99.90;;;;;;4159758;28;20041;-73
2020/12/07 09:31:49;;;;;;;45.70;23.98;;;4.90;99.90;;;;;;4157313;28;20076;-73
2020/12/07 09:33:50;;;;;;;44.58;25.10;;;4.90;99.90;;;;;;4160204;28;20040;-73
2020/12/07 09:35:51;;;;;;;45.45;25.02;;;5.00;99.90;;;;;;4159928;28;20053;-73
2020/12/07 09:37:52;;;;;;;46.00;24.52;;;4.90;99.90;;;;;;4158997;28;20068;-72
2020/12/07 09:39:52;;;;;;;39.65;23.15;;;4.90;99.90;;;;;;4158678;28;20038;-73
2020/12/07 09:41:53;;;;;;;41.97;23.50;;;4.90;99.90;;;;;;4156479;28;20040;-73
2020/12/07 09:43:54;;;;;;;43.50;22.58;;;4.90;99.90;;;;;;4155052;28;20132;-73
2020/12/07 09:45:54;;;;;;;46.78;25.58;;;5.00;99.90;;;;;;4159905;28;20021;-73
2020/12/07 09:47:55;;;;;;;42.97;23.27;;;5.00;99.90;;;;;;4157831;28;20029;-73
2020/12/07 09:49:55;;;;;;;42.33;22.45;;;5.00;99.90;;;;;;4158343;28;20041;-73
2020/12/07 09:51:56;;;;;;;37.00;21.60;;;5.00;99.90;;;;;;4157645;28;20120;-73
2020/12/07 09:53:58;;;;;;;40.22;23.17;;;4.90;99.90;;;;;;4157210;28;20034;-73
2020/12/07 09:55:58;;;;;;;35.95;20.25;;;5.00;99.90;;;;;;4159133;28;20176;-73
2020/12/07 09:57:59;;;;;;;42.28;21.52;;;5.00;99.90;;;;;;4159733;28;20038;-73
2020/12/07 09:59:59;;;;;;;41.42;21.98;;;5.00;99.90;;;;;;4158063;28;20691;-72
2020/12/07 10:02:01;;;;;;;36.33;21.08;;;4.90;99.90;;;;;;4158686;28;20465;-72
2020/12/07 10:04:02;;;;;;;45.10;23.17;;;5.00;99.90;;;;;;4155321;28;20075;-72
2020/12/07 10:06:03;;;;;;;40.10;23.02;;;5.00;99.90;;;;;;4150900;28;20053;-73
2020/12/07 10:08:04;;;;;;;43.22;23.98;;;4.90;99.90;;;;;;4154830;28;20037;-73
2020/12/07 10:10:05;;;;;;;40.10;22.63;;;5.00;99.90;;;;;;4149337;28;20057;-72
2020/12/07 10:12:06;;;;;;;46.72;25.42;;;5.00;99.90;;;;;;4152029;28;20463;-72
2020/12/07 10:14:06;;;;;;;49.15;27.08;;;5.00;99.90;;;;;;4155712;28;20025;-73
2020/12/07 10:16:07;;;;;;;50.97;27.88;;;5.00;99.90;;;;;;4156391;28;20100;-73
2020/12/07 10:18:08;;;;;;;50.00;27.50;;;5.00;99.90;;;;;;4155052;28;20063;-72
2020/12/07 10:20:09;;;;;;;51.17;28.13;;;5.00;99.90;;;;;;4156279;28;20390;-72
2020/12/07 10:22:09;;;;;;;50.28;28.63;;;5.00;99.90;;;;;;4158987;28;20025;-72
2020/12/07 10:24:10;;;;;;;46.95;27.55;;;4.90;99.90;;;;;;4157053;28;20034;-72
2020/12/07 10:26:10;;;;;;;52.22;29.02;;;4.90;99.90;;;;;;4157235;28;20647;-73
2020/12/07 10:28:11;;;;;;;44.65;26.95;;;4.90;99.90;;;;;;4159463;28;20033;-73
2020/12/07 10:30:12;;;;;;;53.10;29.05;;;4.90;99.90;;;;;;4160135;28;20072;-72
2020/12/07 10:32:12;;;;;;;49.53;26.73;;;4.90;99.90;;;;;;4158628;28;20417;-72
2020/12/07 10:34:13;;;;;;;47.85;27.38;;;4.90;99.90;;;;;;4159509;28;20047;-72
2020/12/07 10:36:13;;;;;;;45.72;27.88;;;4.90;99.90;;;;;;4158865;28;20104;-73
2020/12/07 10:38:14;;;;;;;45.75;27.17;;;4.90;99.90;;;;;;4159109;28;20064;-72
2020/12/07 10:40:17;;;;;;;51.00;27.67;;;4.90;99.90;;;;;;4158496;28;20053;-72
2020/12/07 10:42:17;;;;;;;42.97;25.65;;;4.90;99.90;;;;;;4158310;28;20072;-72
2020/12/07 10:44:18;;;;;;;42.33;26.00;;;4.90;99.90;;;;;;4160252;28;20045;-72
2020/12/07 10:46:18;;;;;;;46.28;25.60;;;4.90;99.90;;;;;;4160540;28;20029;-73
2020/12/07 10:48:19;;;;;;;46.80;26.60;;;5.00;99.90;;;;;;4161341;28;20042;-73
2020/12/07 10:50:20;;;;;;;45.42;26.70;;;4.90;99.90;;;;;;4160793;28;20459;-73
2020/12/07 10:52:21;;;;;;;46.55;26.98;;;4.90;99.90;;;;;;4160276;28;20026;-72
2020/12/07 10:54:22;;;;;;;46.90;27.13;;;5.00;99.90;;;;;;4160401;28;20033;-73
2020/12/07 10:56:22;;;;;;;40.72;24.05;;;5.00;99.90;;;;;;4160801;28;20032;-72
2020/12/07 10:58:23;;;;;;;45.58;25.95;;;5.00;99.90;;;;;;4160380;28;20496;-72